sensor_id;sensor_type;location;lat;lon;timestamp;temperature;humidity
23186;DHT22;11761;51.324;4.590;2022-12-15T00:01:21;-6.20;99.90
23186;DHT22;11761;51.324;4.590;2022-12-15T00:04:06;-6.30;99.90
23186;DHT22;11761;51.324;4.590;2022-12-15T00:06:51;-6.30;99.90
23186;DHT22;11761;51.324;4.590;2022-12-15T00:09:36;-6.40;99.90
23186;DHT22;11761;51.324;4.590;2022-12-15T00:12:21;-6.40;99.90
23186;DHT22;11761;51.324;4.590;2022-12-15T00:15:06;-6.40;99.90
23186;DHT22;11761;51.324;4.590;2022-12-15T00:17:50;-6.10;99.90
23186;DHT22;11761;51.324;4.590;2022-12-15T00:20:35;-6.10;99.90
23186;DHT22;11761;51.324;4.590;2022-12-15T00:23:20;-6.10;99.90
23186;DHT22;11761;51.324;4.590;2022-12-15T00:26:05;-6.00;99.90
23186;DHT22;11761;51.324;4.590;2022-12-15T00:28:49;-5.90;99.90
23186;DHT22;11761;51.324;4.590;2022-12-15T00:31:34;-5.60;99.90
23186;DHT22;11761;51.324;4.590;2022-12-15T00:34:19;-5.50;99.90
23186;DHT22;11761;51.324;4.590;2022-12-15T00:37:04;-5.50;99.90
23186;DHT22;11761;51.324;4.590;2022-12-15T00:39:49;-5.50;99.90
23186;DHT22;11761;51.324;4.590;2022-12-15T00:42:27;-5.60;99.90
23186;DHT22;11761;51.324;4.590;2022-12-15T00:44:54;-5.70;99.90
23186;DHT22;11761;51.324;4.590;2022-12-15T00:47:21;-5.80;99.90
23186;DHT22;11761;51.324;4.590;2022-12-15T00:49:47;-5.80;99.90
23186;DHT22;11761;51.324;4.590;2022-12-15T00:52:31;-5.60;99.90
23186;DHT22;11761;51.324;4.590;2022-12-15T00:55:16;-5.50;99.90
23186;DHT22;11761;51.324;4.590;2022-12-15T00:58:01;-5.40;99.90
23186;DHT22;11761;51.324;4.590;2022-12-15T01:00:46;-5.40;99.90
23186;DHT22;11761;51.324;4.590;2022-12-15T01:03:30;-5.50;99.90
23186;DHT22;11761;51.324;4.590;2022-12-15T01:06:17;-5.60;99.90
23186;DHT22;11761;51.324;4.590;2022-12-15T01:09:04;-5.60;99.90
23186;DHT22;11761;51.324;4.590;2022-12-15T01:11:49;-5.50;99.90
23186;DHT22;11761;51.324;4.590;2022-12-15T01:14:34;-5.30;99.90
23186;DHT22;11761;51.324;4.590;2022-12-15T01:17:19;-5.50;99.90
23186;DHT22;11761;51.324;4.590;2022-12-15T01:20:04;-5.60;99.90
23186;DHT22;11761;51.324;4.590;2022-12-15T01:22:51;-5.70;99.90
23186;DHT22;11761;51.324;4.590;2022-12-15T01:25:19;-5.80;99.90
23186;DHT22;11761;51.324;4.590;2022-12-15T01:27:46;-5.80;99.90
23186;DHT22;11761;51.324;4.590;2022-12-15T01:30:14;-5.90;99.90
23186;DHT22;11761;51.324;4.590;2022-12-15T01:32:40;-5.90;99.90
23186;DHT22;11761;51.324;4.590;2022-12-15T01:35:07;-5.80;99.90
23186;DHT22;11761;51.324;4.590;2022-12-15T01:37:34;-5.80;99.90
23186;DHT22;11761;51.324;4.590;2022-12-15T01:40:00;-5.80;99.90
23186;DHT22;11761;51.324;4.590;2022-12-15T01:42:45;-5.90;99.90
23186;DHT22;11761;51.324;4.590;2022-12-15T01:48:01;-6.10;99.90
23186;DHT22;11761;51.324;4.590;2022-12-15T01:50:30;-6.10;99.90
23186;DHT22;11761;51.324;4.590;2022-12-15T01:52:57;-6.10;99.90
23186;DHT22;11761;51.324;4.590;2022-12-15T01:55:26;-6.20;99.90
23186;DHT22;11761;51.324;4.590;2022-12-15T01:57:56;-6.20;99.90
23186;DHT22;11761;51.324;4.590;2022-12-15T02:00:24;-6.20;99.90
23186;DHT22;11761;51.324;4.590;2022-12-15T02:02:51;-5.80;99.90
23186;DHT22;11761;51.324;4.590;2022-12-15T02:05:19;-5.60;99.90
23186;DHT22;11761;51.324;4.590;2022-12-15T02:07:46;-5.50;99.90
23186;DHT22;11761;51.324;4.590;2022-12-15T02:10:12;-5.50;99.90
23186;DHT22;11761;51.324;4.590;2022-12-15T02:13:06;-5.50;99.90
23186;DHT22;11761;51.324;4.590;2022-12-15T02:15:49;-5.50;99.90
23186;DHT22;11761;51.324;4.590;2022-12-15T02:26:44;-5.90;99.90
23186;DHT22;11761;51.324;4.590;2022-12-15T02:29:36;-5.70;99.90
23186;DHT22;11761;51.324;4.590;2022-12-15T02:32:15;-5.50;99.90
23186;DHT22;11761;51.324;4.590;2022-12-15T02:34:51;-5.20;99.90
23186;DHT22;11761;51.324;4.590;2022-12-15T02:37:24;-5.10;99.90
23186;DHT22;11761;51.324;4.590;2022-12-15T02:39:52;-5.20;99.90
23186;DHT22;11761;51.324;4.590;2022-12-15T02:42:18;-5.10;99.90
23186;DHT22;11761;51.324;4.590;2022-12-15T02:44:58;-5.10;99.90
23186;DHT22;11761;51.324;4.590;2022-12-15T02:47:32;-5.20;99.90
23186;DHT22;11761;51.324;4.590;2022-12-15T02:50:25;-5.00;99.90
23186;DHT22;11761;51.324;4.590;2022-12-15T03:01:45;-4.70;99.90
23186;DHT22;11761;51.324;4.590;2022-12-15T03:04:14;-4.80;99.90
23186;DHT22;11761;51.324;4.590;2022-12-15T03:06:41;-4.90;99.90
23186;DHT22;11761;51.324;4.590;2022-12-15T03:09:07;-5.10;99.90
23186;DHT22;11761;51.324;4.590;2022-12-15T03:11:35;-5.20;99.90
23186;DHT22;11761;51.324;4.590;2022-12-15T03:14:02;-5.30;99.90
23186;DHT22;11761;51.324;4.590;2022-12-15T03:16:28;-5.20;99.90
23186;DHT22;11761;51.324;4.590;2022-12-15T03:18:54;-5.30;99.90
23186;DHT22;11761;51.324;4.590;2022-12-15T03:21:20;-5.40;99.90
23186;DHT22;11761;51.324;4.590;2022-12-15T03:23:46;-5.50;99.90
23186;DHT22;11761;51.324;4.590;2022-12-15T03:26:12;-5.60;99.90
23186;DHT22;11761;51.324;4.590;2022-12-15T03:28:39;-5.80;99.90
23186;DHT22;11761;51.324;4.590;2022-12-15T03:31:05;-5.80;99.90
23186;DHT22;11761;51.324;4.590;2022-12-15T03:33:32;-5.90;99.90
23186;DHT22;11761;51.324;4.590;2022-12-15T03:35:58;-5.90;99.90
23186;DHT22;11761;51.324;4.590;2022-12-15T03:38:24;-5.90;99.90
23186;DHT22;11761;51.324;4.590;2022-12-15T03:40:51;-6.00;99.90
23186;DHT22;11761;51.324;4.590;2022-12-15T03:43:17;-6.10;99.90
23186;DHT22;11761;51.324;4.590;2022-12-15T03:45:43;-6.10;99.90
23186;DHT22;11761;51.324;4.590;2022-12-15T03:48:09;-6.10;99.90
23186;DHT22;11761;51.324;4.590;2022-12-15T03:50:35;-6.00;99.90
23186;DHT22;11761;51.324;4.590;2022-12-15T03:53:03;-6.10;99.90
23186;DHT22;11761;51.324;4.590;2022-12-15T03:55:29;-6.10;99.90
23186;DHT22;11761;51.324;4.590;2022-12-15T03:57:56;-6.10;99.90
23186;DHT22;11761;51.324;4.590;2022-12-15T04:00:23;-6.10;99.90
23186;DHT22;11761;51.324;4.590;2022-12-15T04:02:50;-6.20;99.90
23186;DHT22;11761;51.324;4.590;2022-12-15T04:07:48;-6.20;99.90
23186;DHT22;11761;51.324;4.590;2022-12-15T04:10:14;-6.30;99.90
23186;DHT22;11761;51.324;4.590;2022-12-15T04:12:40;-6.30;99.90
23186;DHT22;11761;51.324;4.590;2022-12-15T04:15:09;-6.30;99.90
23186;DHT22;11761;51.324;4.590;2022-12-15T04:17:35;-6.30;99.90
23186;DHT22;11761;51.324;4.590;2022-12-15T04:20:04;-6.20;99.90
23186;DHT22;11761;51.324;4.590;2022-12-15T04:22:41;-6.30;99.90
23186;DHT22;11761;51.324;4.590;2022-12-15T04:25:11;-6.20;99.90
23186;DHT22;11761;51.324;4.590;2022-12-15T04:27:57;-6.20;99.90
23186;DHT22;11761;51.324;4.590;2022-12-15T04:30:45;-6.30;99.90
23186;DHT22;11761;51.324;4.590;2022-12-15T04:33:31;-6.30;99.90
23186;DHT22;11761;51.324;4.590;2022-12-15T04:36:16;-6.30;99.90
23186;DHT22;11761;51.324;4.590;2022-12-15T04:39:03;-6.20;99.90
23186;DHT22;11761;51.324;4.590;2022-12-15T04:41:50;-6.10;99.90
23186;DHT22;11761;51.324;4.590;2022-12-15T04:44:35;-6.10;99.90
23186;DHT22;11761;51.324;4.590;2022-12-15T04:47:20;-6.20;99.90
23186;DHT22;11761;51.324;4.590;2022-12-15T04:50:05;-6.30;99.90
23186;DHT22;11761;51.324;4.590;2022-12-15T04:52:50;-6.30;99.90
23186;DHT22;11761;51.324;4.590;2022-12-15T04:55:36;-6.20;99.90
23186;DHT22;11761;51.324;4.590;2022-12-15T04:58:21;-6.20;99.90
23186;DHT22;11761;51.324;4.590;2022-12-15T05:01:05;-6.10;99.90
23186;DHT22;11761;51.324;4.590;2022-12-15T05:03:50;-6.10;99.90
23186;DHT22;11761;51.324;4.590;2022-12-15T05:06:35;-6.10;99.90
23186;DHT22;11761;51.324;4.590;2022-12-15T05:09:20;-6.00;99.90
23186;DHT22;11761;51.324;4.590;2022-12-15T05:12:05;-6.10;99.90
23186;DHT22;11761;51.324;4.590;2022-12-15T05:14:49;-6.20;99.90
23186;DHT22;11761;51.324;4.590;2022-12-15T05:17:34;-6.30;99.90
23186;DHT22;11761;51.324;4.590;2022-12-15T05:20:19;-6.40;99.90
23186;DHT22;11761;51.324;4.590;2022-12-15T05:23:03;-6.50;99.90
23186;DHT22;11761;51.324;4.590;2022-12-15T05:25:48;-6.50;99.90
23186;DHT22;11761;51.324;4.590;2022-12-15T05:28:33;-6.50;99.90
23186;DHT22;11761;51.324;4.590;2022-12-15T05:31:18;-6.50;99.90
23186;DHT22;11761;51.324;4.590;2022-12-15T05:34:03;-6.60;99.90
23186;DHT22;11761;51.324;4.590;2022-12-15T05:36:29;-6.50;99.90
23186;DHT22;11761;51.324;4.590;2022-12-15T05:38:55;-6.40;99.90
23186;DHT22;11761;51.324;4.590;2022-12-15T05:41:21;-6.30;99.90
23186;DHT22;11761;51.324;4.590;2022-12-15T05:43:48;-6.30;99.90
23186;DHT22;11761;51.324;4.590;2022-12-15T05:46:14;-6.30;99.90
23186;DHT22;11761;51.324;4.590;2022-12-15T05:48:40;-6.20;99.90
23186;DHT22;11761;51.324;4.590;2022-12-15T05:51:08;-6.00;99.90
23186;DHT22;11761;51.324;4.590;2022-12-15T05:53:36;-5.90;99.90
23186;DHT22;11761;51.324;4.590;2022-12-15T05:56:04;-5.80;99.90
23186;DHT22;11761;51.324;4.590;2022-12-15T05:58:31;-5.80;99.90
23186;DHT22;11761;51.324;4.590;2022-12-15T06:03:29;-5.80;99.90
23186;DHT22;11761;51.324;4.590;2022-12-15T06:05:57;-5.70;99.90
23186;DHT22;11761;51.324;4.590;2022-12-15T06:08:29;-5.60;99.90
23186;DHT22;11761;51.324;4.590;2022-12-15T06:10:56;-5.90;99.90
23186;DHT22;11761;51.324;4.590;2022-12-15T06:13:23;-6.00;99.90
23186;DHT22;11761;51.324;4.590;2022-12-15T06:16:03;-6.20;99.90
23186;DHT22;11761;51.324;4.590;2022-12-15T06:18:33;-6.30;99.90
23186;DHT22;11761;51.324;4.590;2022-12-15T06:21:02;-6.40;99.90
23186;DHT22;11761;51.324;4.590;2022-12-15T06:23:30;-6.40;99.90
23186;DHT22;11761;51.324;4.590;2022-12-15T06:25:58;-6.40;99.90
23186;DHT22;11761;51.324;4.590;2022-12-15T06:28:25;-6.50;99.90
23186;DHT22;11761;51.324;4.590;2022-12-15T06:30:55;-6.30;99.90
23186;DHT22;11761;51.324;4.590;2022-12-15T06:33:28;-6.20;99.90
23186;DHT22;11761;51.324;4.590;2022-12-15T06:35:54;-6.10;99.90
23186;DHT22;11761;51.324;4.590;2022-12-15T06:38:21;-6.00;99.90
23186;DHT22;11761;51.324;4.590;2022-12-15T06:40:55;-5.80;99.90
23186;DHT22;11761;51.324;4.590;2022-12-15T06:43:21;-5.80;99.90
23186;DHT22;11761;51.324;4.590;2022-12-15T06:45:48;-5.80;99.90
23186;DHT22;11761;51.324;4.590;2022-12-15T06:48:15;-5.70;99.90
23186;DHT22;11761;51.324;4.590;2022-12-15T06:50:41;-5.50;99.90
23186;DHT22;11761;51.324;4.590;2022-12-15T06:53:07;-5.50;99.90
23186;DHT22;11761;51.324;4.590;2022-12-15T06:55:33;-5.50;99.90
23186;DHT22;11761;51.324;4.590;2022-12-15T06:57:59;-5.50;99.90
23186;DHT22;11761;51.324;4.590;2022-12-15T07:00:25;-5.40;99.90
23186;DHT22;11761;51.324;4.590;2022-12-15T07:02:53;-5.40;99.90
23186;DHT22;11761;51.324;4.590;2022-12-15T07:05:19;-5.40;99.90
23186;DHT22;11761;51.324;4.590;2022-12-15T07:07:47;-5.40;99.90
23186;DHT22;11761;51.324;4.590;2022-12-15T07:10:13;-5.50;99.90
23186;DHT22;11761;51.324;4.590;2022-12-15T07:12:39;-5.60;99.90
23186;DHT22;11761;51.324;4.590;2022-12-15T07:15:06;-5.80;99.90
23186;DHT22;11761;51.324;4.590;2022-12-15T07:17:34;-5.90;99.90
23186;DHT22;11761;51.324;4.590;2022-12-15T07:20:00;-5.90;99.90
23186;DHT22;11761;51.324;4.590;2022-12-15T07:22:27;-6.00;99.90
23186;DHT22;11761;51.324;4.590;2022-12-15T07:24:53;-6.00;99.90
23186;DHT22;11761;51.324;4.590;2022-12-15T07:27:20;-6.10;99.90
23186;DHT22;11761;51.324;4.590;2022-12-15T07:29:46;-6.20;99.90
23186;DHT22;11761;51.324;4.590;2022-12-15T07:32:12;-6.20;99.90
23186;DHT22;11761;51.324;4.590;2022-12-15T07:34:38;-6.10;99.90
23186;DHT22;11761;51.324;4.590;2022-12-15T07:37:04;-5.90;99.90
23186;DHT22;11761;51.324;4.590;2022-12-15T07:39:30;-5.90;99.90
23186;DHT22;11761;51.324;4.590;2022-12-15T07:41:57;-5.80;99.90
23186;DHT22;11761;51.324;4.590;2022-12-15T07:44:23;-6.00;99.90
23186;DHT22;11761;51.324;4.590;2022-12-15T07:46:49;-6.00;99.90
23186;DHT22;11761;51.324;4.590;2022-12-15T07:49:16;-6.20;99.90
23186;DHT22;11761;51.324;4.590;2022-12-15T07:51:43;-6.20;99.90
23186;DHT22;11761;51.324;4.590;2022-12-15T07:54:10;-6.10;99.90
23186;DHT22;11761;51.324;4.590;2022-12-15T07:56:37;-5.90;99.90
23186;DHT22;11761;51.324;4.590;2022-12-15T07:59:04;-5.80;99.90
23186;DHT22;11761;51.324;4.590;2022-12-15T08:01:30;-5.60;99.90
23186;DHT22;11761;51.324;4.590;2022-12-15T08:03:56;-5.40;99.90
23186;DHT22;11761;51.324;4.590;2022-12-15T08:06:23;-5.30;99.90
23186;DHT22;11761;51.324;4.590;2022-12-15T08:08:50;-5.20;99.90
23186;DHT22;11761;51.324;4.590;2022-12-15T08:11:16;-5.20;99.90
23186;DHT22;11761;51.324;4.590;2022-12-15T08:13:43;-5.40;99.90
23186;DHT22;11761;51.324;4.590;2022-12-15T08:16:10;-5.40;99.90
23186;DHT22;11761;51.324;4.590;2022-12-15T08:18:36;-5.20;99.90
23186;DHT22;11761;51.324;4.590;2022-12-15T08:21:03;-5.30;99.90
23186;DHT22;11761;51.324;4.590;2022-12-15T08:23:30;-5.40;99.90
23186;DHT22;11761;51.324;4.590;2022-12-15T08:26:12;-5.50;99.90
23186;DHT22;11761;51.324;4.590;2022-12-15T08:28:40;-5.50;99.90
23186;DHT22;11761;51.324;4.590;2022-12-15T08:31:08;-5.60;99.90
23186;DHT22;11761;51.324;4.590;2022-12-15T08:33:36;-5.60;99.90
23186;DHT22;11761;51.324;4.590;2022-12-15T08:36:05;-5.60;99.90
23186;DHT22;11761;51.324;4.590;2022-12-15T08:38:32;-5.50;99.90
23186;DHT22;11761;51.324;4.590;2022-12-15T08:41:10;-5.50;99.90
23186;DHT22;11761;51.324;4.590;2022-12-15T08:43:37;-5.50;99.90
23186;DHT22;11761;51.324;4.590;2022-12-15T08:46:04;-5.40;99.90
23186;DHT22;11761;51.324;4.590;2022-12-15T08:48:31;-5.40;99.90
23186;DHT22;11761;51.324;4.590;2022-12-15T08:50:58;-5.40;99.90
23186;DHT22;11761;51.324;4.590;2022-12-15T08:53:25;-5.30;99.90
23186;DHT22;11761;51.324;4.590;2022-12-15T08:55:51;-5.20;99.90
23186;DHT22;11761;51.324;4.590;2022-12-15T08:58:18;-4.90;99.90
23186;DHT22;11761;51.324;4.590;2022-12-15T09:00:45;-4.70;99.90
23186;DHT22;11761;51.324;4.590;2022-12-15T09:03:12;-4.60;99.90
23186;DHT22;11761;51.324;4.590;2022-12-15T09:05:38;-4.70;99.90
23186;DHT22;11761;51.324;4.590;2022-12-15T09:08:05;-4.60;99.90
23186;DHT22;11761;51.324;4.590;2022-12-15T09:10:31;-4.50;99.90
23186;DHT22;11761;51.324;4.590;2022-12-15T09:12:57;-4.40;99.90
23186;DHT22;11761;51.324;4.590;2022-12-15T09:15:23;-4.30;99.90
23186;DHT22;11761;51.324;4.590;2022-12-15T09:17:49;-4.20;99.90
23186;DHT22;11761;51.324;4.590;2022-12-15T09:20:16;-4.20;99.90
23186;DHT22;11761;51.324;4.590;2022-12-15T09:22:42;-4.20;99.90
23186;DHT22;11761;51.324;4.590;2022-12-15T09:25:08;-4.10;99.90
23186;DHT22;11761;51.324;4.590;2022-12-15T09:27:34;-4.00;99.90
23186;DHT22;11761;51.324;4.590;2022-12-15T09:30:01;-4.00;99.90
23186;DHT22;11761;51.324;4.590;2022-12-15T09:32:27;-3.90;99.90
23186;DHT22;11761;51.324;4.590;2022-12-15T09:34:53;-3.90;99.90
23186;DHT22;11761;51.324;4.590;2022-12-15T09:37:20;-3.80;99.90
23186;DHT22;11761;51.324;4.590;2022-12-15T09:39:46;-3.80;99.90
23186;DHT22;11761;51.324;4.590;2022-12-15T09:42:24;-3.60;99.90
23186;DHT22;11761;51.324;4.590;2022-12-15T09:45:18;-3.60;99.90
23186;DHT22;11761;51.324;4.590;2022-12-15T09:50:18;-3.50;99.90
23186;DHT22;11761;51.324;4.590;2022-12-15T09:52:52;-3.40;99.90
23186;DHT22;11761;51.324;4.590;2022-12-15T09:55:28;-3.30;99.90
23186;DHT22;11761;51.324;4.590;2022-12-15T09:57:58;-3.20;99.90
23186;DHT22;11761;51.324;4.590;2022-12-15T10:00:39;-3.10;99.90
23186;DHT22;11761;51.324;4.590;2022-12-15T10:06:13;-2.90;99.90
23186;DHT22;11761;51.324;4.590;2022-12-15T10:08:43;-2.90;99.90
23186;DHT22;11761;51.324;4.590;2022-12-15T10:11:23;-2.90;99.90
23186;DHT22;11761;51.324;4.590;2022-12-15T10:14:38;-2.80;99.90
23186;DHT22;11761;51.324;4.590;2022-12-15T10:16:49;-2.80;99.90
23186;DHT22;11761;51.324;4.590;2022-12-15T10:21:56;-2.60;99.90
23186;DHT22;11761;51.324;4.590;2022-12-15T10:24:24;-2.70;99.90
23186;DHT22;11761;51.324;4.590;2022-12-15T10:29:59;-2.20;99.90
23186;DHT22;11761;51.324;4.590;2022-12-15T10:32:50;-2.10;99.90
23186;DHT22;11761;51.324;4.590;2022-12-15T10:35:23;-1.90;99.90
23186;DHT22;11761;51.324;4.590;2022-12-15T10:37:51;-1.90;99.90
23186;DHT22;11761;51.324;4.590;2022-12-15T10:40:21;-1.80;99.90
23186;DHT22;11761;51.324;4.590;2022-12-15T10:46:26;-1.70;99.90
23186;DHT22;11761;51.324;4.590;2022-12-15T10:51:54;-1.50;99.90
23186;DHT22;11761;51.324;4.590;2022-12-15T10:54:25;-1.50;99.90
23186;DHT22;11761;51.324;4.590;2022-12-15T10:56:54;-1.40;99.90
23186;DHT22;11761;51.324;4.590;2022-12-15T10:59:34;-1.30;99.90
23186;DHT22;11761;51.324;4.590;2022-12-15T11:07:25;-1.10;99.90
23186;DHT22;11761;51.324;4.590;2022-12-15T11:09:58;-1.00;99.90
23186;DHT22;11761;51.324;4.590;2022-12-15T11:12:28;-1.00;99.90
23186;DHT22;11761;51.324;4.590;2022-12-15T11:18:01;-0.90;99.90
23186;DHT22;11761;51.324;4.590;2022-12-15T11:20:37;-0.80;99.90
23186;DHT22;11761;51.324;4.590;2022-12-15T11:28:31;-0.70;99.90
23186;DHT22;11761;51.324;4.590;2022-12-15T11:31:06;-0.60;99.90
23186;DHT22;11761;51.324;4.590;2022-12-15T11:33:36;-0.50;99.90
23186;DHT22;11761;51.324;4.590;2022-12-15T11:39:34;-0.20;99.90
23186;DHT22;11761;51.324;4.590;2022-12-15T11:50:07;0.50;99.90
23186;DHT22;11761;51.324;4.590;2022-12-15T11:55:34;1.00;99.90
23186;DHT22;11761;51.324;4.590;2022-12-15T11:58:27;1.10;99.90
23186;DHT22;11761;51.324;4.590;2022-12-15T12:09:25;1.10;99.90
23186;DHT22;11761;51.324;4.590;2022-12-15T12:12:09;1.20;99.90
23186;DHT22;11761;51.324;4.590;2022-12-15T12:20:22;1.50;99.90
23186;DHT22;11761;51.324;4.590;2022-12-15T12:23:08;1.90;99.90
23186;DHT22;11761;51.324;4.590;2022-12-15T12:25:46;2.00;99.90
23186;DHT22;11761;51.324;4.590;2022-12-15T12:28:20;2.30;99.90
23186;DHT22;11761;51.324;4.590;2022-12-15T12:30:47;2.40;99.90
23186;DHT22;11761;51.324;4.590;2022-12-15T12:33:43;2.20;99.90
23186;DHT22;11761;51.324;4.590;2022-12-15T12:36:15;2.10;99.90
23186;DHT22;11761;51.324;4.590;2022-12-15T12:38:46;1.90;99.90
23186;DHT22;11761;51.324;4.590;2022-12-15T12:44:10;1.50;99.90
23186;DHT22;11761;51.324;4.590;2022-12-15T12:46:47;1.50;99.90
23186;DHT22;11761;51.324;4.590;2022-12-15T12:49:30;1.60;99.90
23186;DHT22;11761;51.324;4.590;2022-12-15T12:52:00;1.90;99.90
23186;DHT22;11761;51.324;4.590;2022-12-15T12:56:59;2.00;99.90
23186;DHT22;11761;51.324;4.590;2022-12-15T13:04:42;2.60;99.90
23186;DHT22;11761;51.324;4.590;2022-12-15T13:07:35;2.50;99.90
23186;DHT22;11761;51.324;4.590;2022-12-15T13:10:15;3.10;99.90
23186;DHT22;11761;51.324;4.590;2022-12-15T13:15:30;2.80;99.90
23186;DHT22;11761;51.324;4.590;2022-12-15T13:18:16;2.70;99.90
23186;DHT22;11761;51.324;4.590;2022-12-15T13:20:44;2.40;99.90
23186;DHT22;11761;51.324;4.590;2022-12-15T13:47:10;3.50;99.90
23186;DHT22;11761;51.324;4.590;2022-12-15T13:49:42;3.00;99.90
23186;DHT22;11761;51.324;4.590;2022-12-15T13:52:16;3.20;99.90
23186;DHT22;11761;51.324;4.590;2022-12-15T13:54:56;3.40;99.90
23186;DHT22;11761;51.324;4.590;2022-12-15T13:57:24;4.20;99.90
23186;DHT22;11761;51.324;4.590;2022-12-15T14:00:00;4.30;99.90
23186;DHT22;11761;51.324;4.590;2022-12-15T14:02:34;3.70;99.90
23186;DHT22;11761;51.324;4.590;2022-12-15T14:07:57;3.50;99.90
23186;DHT22;11761;51.324;4.590;2022-12-15T14:10:40;3.90;99.90
23186;DHT22;11761;51.324;4.590;2022-12-15T14:15:46;2.90;99.90
23186;DHT22;11761;51.324;4.590;2022-12-15T14:18:26;2.10;99.90
23186;DHT22;11761;51.324;4.590;2022-12-15T14:20:53;1.60;99.90
23186;DHT22;11761;51.324;4.590;2022-12-15T14:23:28;1.30;99.90
23186;DHT22;11761;51.324;4.590;2022-12-15T14:26:04;0.80;99.90
23186;DHT22;11761;51.324;4.590;2022-12-15T14:28:36;0.60;99.90
23186;DHT22;11761;51.324;4.590;2022-12-15T14:31:15;0.40;99.90
23186;DHT22;11761;51.324;4.590;2022-12-15T14:33:44;0.30;99.90
23186;DHT22;11761;51.324;4.590;2022-12-15T14:36:12;0.20;99.90
23186;DHT22;11761;51.324;4.590;2022-12-15T14:38:53;0.10;99.90
23186;DHT22;11761;51.324;4.590;2022-12-15T14:41:24;0.00;99.90
23186;DHT22;11761;51.324;4.590;2022-12-15T14:43:54;0.00;99.90
23186;DHT22;11761;51.324;4.590;2022-12-15T14:46:22;-0.10;99.90
23186;DHT22;11761;51.324;4.590;2022-12-15T14:48:54;-0.30;99.90
23186;DHT22;11761;51.324;4.590;2022-12-15T14:51:23;-0.30;99.90
23186;DHT22;11761;51.324;4.590;2022-12-15T14:53:51;-0.40;99.90
23186;DHT22;11761;51.324;4.590;2022-12-15T14:56:22;-0.50;99.90
23186;DHT22;11761;51.324;4.590;2022-12-15T15:01:39;-0.60;99.90
23186;DHT22;11761;51.324;4.590;2022-12-15T15:04:22;-0.70;99.90
23186;DHT22;11761;51.324;4.590;2022-12-15T15:06:56;-0.80;99.90
23186;DHT22;11761;51.324;4.590;2022-12-15T15:09:25;-0.90;99.90
23186;DHT22;11761;51.324;4.590;2022-12-15T15:12:14;-1.00;99.90
23186;DHT22;11761;51.324;4.590;2022-12-15T15:14:44;-1.00;99.90
23186;DHT22;11761;51.324;4.590;2022-12-15T15:19:59;-1.10;99.90
23186;DHT22;11761;51.324;4.590;2022-12-15T15:27:48;-1.40;99.90
23186;DHT22;11761;51.324;4.590;2022-12-15T15:30:22;-1.40;99.90
23186;DHT22;11761;51.324;4.590;2022-12-15T15:32:54;-1.40;99.90
23186;DHT22;11761;51.324;4.590;2022-12-15T15:35:23;-1.50;99.90
23186;DHT22;11761;51.324;4.590;2022-12-15T15:37:51;-1.60;99.90
23186;DHT22;11761;51.324;4.590;2022-12-15T15:40:18;-1.70;99.90
23186;DHT22;11761;51.324;4.590;2022-12-15T15:42:44;-1.70;99.90
23186;DHT22;11761;51.324;4.590;2022-12-15T15:45:11;-1.90;99.90
23186;DHT22;11761;51.324;4.590;2022-12-15T15:47:44;-1.90;99.90
23186;DHT22;11761;51.324;4.590;2022-12-15T15:50:14;-2.00;99.90
23186;DHT22;11761;51.324;4.590;2022-12-15T15:52:42;-2.20;99.90
23186;DHT22;11761;51.324;4.590;2022-12-15T15:55:26;-2.30;99.90
23186;DHT22;11761;51.324;4.590;2022-12-15T15:57:53;-2.20;99.90
23186;DHT22;11761;51.324;4.590;2022-12-15T16:00:21;-2.30;99.90
23186;DHT22;11761;51.324;4.590;2022-12-15T16:02:48;-2.30;99.90
23186;DHT22;11761;51.324;4.590;2022-12-15T16:05:14;-2.30;99.90
23186;DHT22;11761;51.324;4.590;2022-12-15T16:07:42;-2.40;99.90
23186;DHT22;11761;51.324;4.590;2022-12-15T16:10:14;-2.50;99.90
23186;DHT22;11761;51.324;4.590;2022-12-15T16:12:50;-2.50;99.90
23186;DHT22;11761;51.324;4.590;2022-12-15T16:15:26;-2.60;99.90
23186;DHT22;11761;51.324;4.590;2022-12-15T16:17:52;-2.60;99.90
23186;DHT22;11761;51.324;4.590;2022-12-15T16:20:21;-2.70;99.90
23186;DHT22;11761;51.324;4.590;2022-12-15T16:23:01;-2.70;99.90
23186;DHT22;11761;51.324;4.590;2022-12-15T16:25:40;-2.70;99.90
23186;DHT22;11761;51.324;4.590;2022-12-15T16:28:15;-2.80;99.90
23186;DHT22;11761;51.324;4.590;2022-12-15T16:30:42;-2.80;99.90
23186;DHT22;11761;51.324;4.590;2022-12-15T16:33:10;-2.90;99.90
23186;DHT22;11761;51.324;4.590;2022-12-15T16:35:36;-2.90;99.90
23186;DHT22;11761;51.324;4.590;2022-12-15T16:38:04;-3.00;99.90
23186;DHT22;11761;51.324;4.590;2022-12-15T16:40:35;-3.10;99.90
23186;DHT22;11761;51.324;4.590;2022-12-15T16:43:04;-3.10;99.90
23186;DHT22;11761;51.324;4.590;2022-12-15T16:45:34;-3.10;99.90
23186;DHT22;11761;51.324;4.590;2022-12-15T16:48:00;-3.20;99.90
23186;DHT22;11761;51.324;4.590;2022-12-15T16:50:30;-3.30;99.90
23186;DHT22;11761;51.324;4.590;2022-12-15T16:52:57;-3.20;99.90
23186;DHT22;11761;51.324;4.590;2022-12-15T16:55:28;-3.30;99.90
23186;DHT22;11761;51.324;4.590;2022-12-15T16:57:59;-3.30;99.90
23186;DHT22;11761;51.324;4.590;2022-12-15T17:00:30;-3.30;99.90
23186;DHT22;11761;51.324;4.590;2022-12-15T17:02:56;-3.40;99.90
23186;DHT22;11761;51.324;4.590;2022-12-15T17:05:30;-3.30;99.90
23186;DHT22;11761;51.324;4.590;2022-12-15T17:07:58;-3.30;99.90
23186;DHT22;11761;51.324;4.590;2022-12-15T17:10:27;-3.30;99.90
23186;DHT22;11761;51.324;4.590;2022-12-15T17:13:02;-3.40;99.90
23186;DHT22;11761;51.324;4.590;2022-12-15T17:15:29;-3.40;99.90
23186;DHT22;11761;51.324;4.590;2022-12-15T17:17:55;-3.40;99.90
23186;DHT22;11761;51.324;4.590;2022-12-15T17:20:25;-3.30;99.90
23186;DHT22;11761;51.324;4.590;2022-12-15T17:22:56;-3.40;99.90
23186;DHT22;11761;51.324;4.590;2022-12-15T17:25:27;-3.50;99.90
23186;DHT22;11761;51.324;4.590;2022-12-15T17:27:55;-3.50;99.90
23186;DHT22;11761;51.324;4.590;2022-12-15T17:30:21;-3.50;99.90
23186;DHT22;11761;51.324;4.590;2022-12-15T17:32:47;-3.70;99.90
23186;DHT22;11761;51.324;4.590;2022-12-15T17:35:15;-3.80;99.90
23186;DHT22;11761;51.324;4.590;2022-12-15T17:37:43;-3.70;99.90
23186;DHT22;11761;51.324;4.590;2022-12-15T17:40:17;-3.70;99.90
23186;DHT22;11761;51.324;4.590;2022-12-15T17:42:44;-3.50;99.90
23186;DHT22;11761;51.324;4.590;2022-12-15T17:45:22;-3.40;99.90
23186;DHT22;11761;51.324;4.590;2022-12-15T17:47:50;-3.50;99.90
23186;DHT22;11761;51.324;4.590;2022-12-15T17:50:17;-3.60;99.90
23186;DHT22;11761;51.324;4.590;2022-12-15T17:52:45;-3.60;99.90
23186;DHT22;11761;51.324;4.590;2022-12-15T17:57:41;-3.70;99.90
23186;DHT22;11761;51.324;4.590;2022-12-15T18:00:19;-3.60;99.90
23186;DHT22;11761;51.324;4.590;2022-12-15T18:02:46;-3.60;99.90
23186;DHT22;11761;51.324;4.590;2022-12-15T18:05:15;-3.60;99.90
23186;DHT22;11761;51.324;4.590;2022-12-15T18:07:41;-3.70;99.90
23186;DHT22;11761;51.324;4.590;2022-12-15T18:10:26;-3.70;99.90
23186;DHT22;11761;51.324;4.590;2022-12-15T18:12:53;-3.80;99.90
23186;DHT22;11761;51.324;4.590;2022-12-15T18:15:22;-3.70;99.90
23186;DHT22;11761;51.324;4.590;2022-12-15T18:17:49;-3.60;99.90
23186;DHT22;11761;51.324;4.590;2022-12-15T18:20:15;-3.40;99.90
23186;DHT22;11761;51.324;4.590;2022-12-15T18:22:43;-3.30;99.90
23186;DHT22;11761;51.324;4.590;2022-12-15T18:25:18;-3.30;99.90